Time;durP1;ratioP1;P1;durP2;ratioP2;P2;SDS_P1;SDS_P2;PMS_P1;PMS_P2;Temp;Humidity;BMP_temperature;BMP_pressure;BME280_temperature;BME280_humidity;BME280_pressure;Samples;Min_cycle;Max_cycle;Signal;HPM_P1;HPM_P2
2022/06/09 00:01:00;;;;;;;26.85;8.27;;;;;;;;;;5057561;28;20052;-70
2022/06/09 00:03:28;;;;;;;32.70;9.27;;;;;;;;;;5050196;28;20036;-70
2022/06/09 00:05:54;;;;;;;33.63;8.95;;;;;;;;;;5056643;28;20475;-70
2022/06/09 00:08:21;;;;;;;29.35;9.05;;;;;;;;;;5056227;28;20913;-70
2022/06/09 00:10:53;;;;;;;29.05;10.15;;;;;;;;;;5060175;28;20383;-71
2022/06/09 00:13:19;;;;;;;36.40;9.02;;;;;;;;;;5067626;28;20040;-70
2022/06/09 00:15:45;;;;;;;32.63;9.32;;;;;;;;;;5073481;28;20083;-70
2022/06/09 00:18:11;;;;;;;38.15;10.27;;;;;;;;;;5083186;28;20483;-70
2022/06/09 00:20:37;;;;;;;33.15;8.88;;;;;;;;;;5059787;28;20048;-71
2022/06/09 00:23:03;;;;;;;35.42;9.32;;;;;;;;;;5058946;28;20044;-70
2022/06/09 00:25:29;;;;;;;35.67;9.10;;;;;;;;;;5054498;28;20119;-70
2022/06/09 00:27:55;;;;;;;28.88;9.25;;;;;;;;;;5058570;28;20408;-70
2022/06/09 00:30:21;;;;;;;23.15;8.80;;;;;;;;;;5054692;28;20037;-70
2022/06/09 00:32:47;;;;;;;39.22;9.48;;;;;;;;;;5054844;28;20064;-70
2022/06/09 00:35:14;;;;;;;36.58;9.73;;;;;;;;;;5039699;28;20033;-70
2022/06/09 00:37:40;;;;;;;31.05;9.18;;;;;;;;;;5056547;28;20029;-70
2022/06/09 00:40:07;;;;;;;28.17;9.60;;;;;;;;;;5057119;28;20043;-71
2022/06/09 00:42:34;;;;;;;36.08;9.15;;;;;;;;;;5058597;28;20040;-70
2022/06/09 00:45:19;;;;;;;32.20;9.18;;;;;;;;;;5051906;28;20057;-70
2022/06/09 00:47:45;;;;;;;25.88;8.20;;;;;;;;;;5053581;28;20518;-70
2022/06/09 00:50:15;;;;;;;35.53;8.77;;;;;;;;;;5053520;28;20082;-71
2022/06/09 00:52:43;;;;;;;28.80;9.30;;;;;;;;;;5057504;28;20082;-70
2022/06/09 00:55:13;;;;;;;31.92;9.35;;;;;;;;;;5054386;28;20021;-70
2022/06/09 00:57:48;;;;;;;30.45;8.85;;;;;;;;;;5061754;28;20104;-70
2022/06/09 01:00:22;;;;;;;32.08;9.82;;;;;;;;;;5054435;28;20056;-70
2022/06/09 01:02:50;;;;;;;24.27;8.50;;;;;;;;;;5053208;28;20041;-71
2022/06/09 01:05:17;;;;;;;35.80;8.80;;;;;;;;;;5053519;28;20036;-71
2022/06/09 01:07:45;;;;;;;33.28;9.90;;;;;;;;;;5039898;28;20052;-70
2022/06/09 01:10:11;;;;;;;28.00;9.02;;;;;;;;;;5058332;28;20020;-71
2022/06/09 01:12:39;;;;;;;38.85;8.35;;;;;;;;;;5053285;28;20039;-70
2022/06/09 01:15:08;;;;;;;31.20;8.68;;;;;;;;;;5053955;28;20064;-71
2022/06/09 01:17:39;;;;;;;34.10;8.68;;;;;;;;;;5055527;28;20108;-71
2022/06/09 01:20:09;;;;;;;28.23;8.77;;;;;;;;;;5052792;28;21903;-71
2022/06/09 01:22:43;;;;;;;27.92;8.52;;;;;;;;;;5060019;28;20507;-71
2022/06/09 01:25:09;;;;;;;31.88;9.32;;;;;;;;;;5053600;28;20654;-71
2022/06/09 01:28:21;;;;;;;25.30;8.68;;;14.00;99.90;;;;;;5056050;28;20523;-71
2022/06/09 01:30:55;;;;;;;29.20;9.07;;;;;;;;;;5048448;28;20038;-70
2022/06/09 01:33:39;;;;;;;32.63;9.23;;;;;;;;;;5059690;28;20037;-71
2022/06/09 01:36:11;;;;;;;40.60;14.07;;;;;;;;;;5081200;28;20028;-71
2022/06/09 01:38:48;;;;;;;26.13;8.25;;;;;;;;;;5067000;28;20426;-71
2022/06/09 01:41:15;;;;;;;23.40;8.88;;;;;;;;;;5063110;28;20119;-71
2022/06/09 01:43:42;;;;;;;27.95;8.18;;;;;;;;;;5058955;28;20042;-71
2022/06/09 01:46:09;;;;;;;19.42;8.90;;;;;;;;;;5056217;28;20039;-71
2022/06/09 01:48:36;;;;;;;29.42;10.50;;;;;;;;;;5054164;28;20052;-71
2022/06/09 01:51:13;;;;;;;37.85;9.25;;;;;;;;;;5058478;28;20115;-70
2022/06/09 01:53:41;;;;;;;32.30;9.15;;;;;;;;;;5057502;28;20048;-71
2022/06/09 01:56:11;;;;;;;29.90;10.52;;;;;;;;;;5036441;28;20546;-71
2022/06/09 01:58:46;;;;;;;30.50;9.90;;;;;;;;;;5036405;28;20051;-70
2022/06/09 02:01:14;;;;;;;35.33;10.43;;;;;;;;;;5054154;28;20028;-71
2022/06/09 02:03:42;;;;;;;37.25;10.73;;;;;;;;;;5052299;28;20055;-70
2022/06/09 02:06:09;;;;;;;30.45;9.15;;;;;;;;;;5055875;28;20379;-71
2022/06/09 02:08:36;;;;;;;28.95;9.55;;;;;;;;;;5053289;28;20043;-71
2022/06/09 02:11:07;;;;;;;29.73;9.50;;;;;;;;;;5051503;28;20384;-70
2022/06/09 02:13:35;;;;;;;28.52;10.32;;;;;;;;;;5054798;28;20498;-71
2022/06/09 02:16:04;;;;;;;24.92;10.57;;;;;;;;;;5058253;28;20484;-71
2022/06/09 02:18:31;;;;;;;37.10;10.55;;;;;;;;;;5057622;28;20059;-71
2022/06/09 02:20:57;;;;;;;25.77;10.05;;;;;;;;;;5051036;28;20040;-70
2022/06/09 02:23:23;;;;;;;21.10;10.23;;;;;;;;;;5058126;28;20028;-71
2022/06/09 02:25:49;;;;;;;31.13;10.05;;;;;;;;;;5055900;28;20554;-71
2022/06/09 02:28:15;;;;;;;24.52;9.48;;;;;;;;;;5038764;28;20042;-71
2022/06/09 02:30:42;;;;;;;24.90;9.55;;;;;;;;;;5060470;28;20049;-70
2022/06/09 02:33:09;;;;;;;24.25;9.27;;;;;;;;;;5049143;28;20126;-71
2022/06/09 02:35:36;;;;;;;31.15;9.65;;;;;;;;;;5057308;28;20032;-71
2022/06/09 02:38:02;;;;;;;29.17;9.98;;;;;;;;;;5054348;28;20041;-70
2022/06/09 02:40:28;;;;;;;22.55;9.27;;;;;;;;;;5062348;28;20078;-71
2022/06/09 02:42:54;;;;;;;21.02;10.00;;;;;;;;;;5056259;28;20160;-72
2022/06/09 02:45:20;;;;;;;23.63;10.60;;;;;;;;;;5054476;28;20037;-70
2022/06/09 02:47:47;;;;;;;26.20;9.00;;;;;;;;;;5056393;28;20051;-70
2022/06/09 02:50:13;;;;;;;26.98;9.25;;;;;;;;;;5052934;28;20028;-70
2022/06/09 02:52:41;;;;;;;30.10;10.20;;;;;;;;;;5056757;28;20072;-71
2022/06/09 02:55:07;;;;;;;34.78;9.07;;;;;;;;;;5052611;28;20033;-71
2022/06/09 02:57:33;;;;;;;24.30;9.25;;;;;;;;;;5052622;28;20040;-70
2022/06/09 02:59:59;;;;;;;23.40;8.82;;;;;;;;;;5054903;28;20550;-71
2022/06/09 03:02:25;;;;;;;25.42;9.43;;;;;;;;;;5037957;28;20055;-71
2022/06/09 03:04:51;;;;;;;26.08;10.18;;;;;;;;;;5054476;28;20047;-70
2022/06/09 03:07:17;;;;;;;23.45;9.10;;;;;;;;;;5035413;28;20037;-73
2022/06/09 03:09:43;;;;;;;23.45;8.80;;;;;;;;;;5050100;28;23170;-70
2022/06/09 03:12:10;;;;;;;19.48;8.93;;;;;;;;;;5039566;28;20083;-70
2022/06/09 03:14:37;;;;;;;18.48;8.80;;;;;;;;;;5053972;28;20157;-71
2022/06/09 03:17:03;;;;;;;26.23;9.95;;;;;;;;;;5054185;28;20029;-71
2022/06/09 03:19:30;;;;;;;21.70;9.40;;;;;;;;;;5057087;28;20111;-70
2022/06/09 03:21:56;;;;;;;19.38;8.80;;;;;;;;;;5053105;28;20067;-70
2022/06/09 03:24:22;;;;;;;26.02;9.55;;;;;;;;;;5056453;28;20040;-70
2022/06/09 03:26:49;;;;;;;16.92;8.90;;;;;;;;;;5059748;28;20098;-70
2022/06/09 03:29:17;;;;;;;24.55;9.88;;;;;;;;;;5056472;28;20029;-71
2022/06/09 03:31:43;;;;;;;24.13;9.60;;;;;;;;;;5054597;28;20098;-71
2022/06/09 03:34:09;;;;;;;23.50;9.38;;;;;;;;;;5043759;28;20036;-70
2022/06/09 03:36:35;;;;;;;24.70;10.82;;;;;;;;;;5056654;28;20128;-70
2022/06/09 03:39:01;;;;;;;17.63;9.90;;;;;;;;;;5060640;28;20025;-70
2022/06/09 03:41:27;;;;;;;17.92;9.43;;;;;;;;;;5054252;28;20099;-71
2022/06/09 03:43:53;;;;;;;25.95;9.93;;;;;;;;;;5058704;28;20033;-71
2022/06/09 03:46:19;;;;;;;18.30;8.18;;;;;;;;;;5060838;28;20056;-71
2022/06/09 03:48:45;;;;;;;21.13;9.50;;;;;;;;;;5054166;28;20064;-71
2022/06/09 03:51:11;;;;;;;23.15;11.23;;;;;;;;;;5060536;28;20037;-72
2022/06/09 03:53:39;;;;;;;23.60;11.02;;;;;;;;;;5057719;28;20036;-72
2022/06/09 03:56:05;;;;;;;20.83;10.13;;;;;;;;;;5053352;28;20052;-71
2022/06/09 03:58:31;;;;;;;20.05;9.52;;;;;;;;;;5061272;28;20038;-71
2022/06/09 04:00:57;;;;;;;19.42;12.50;;;;;;;;;;5054698;28;20060;-72
2022/06/09 04:03:23;;;;;;;31.10;13.98;;;;;;;;;;5054831;28;20136;-72
2022/06/09 04:05:49;;;;;;;22.75;13.15;;;;;;;;;;5058156;28;20501;-72
2022/06/09 04:08:15;;;;;;;21.63;12.30;;;;;;;;;;5052593;28;20040;-72
2022/06/09 04:10:41;;;;;;;25.30;14.30;;;;;;;;;;5058509;28;20037;-72
2022/06/09 04:13:07;;;;;;;21.20;14.30;;;;;;;;;;5057683;28;20487;-72
2022/06/09 04:15:34;;;;;;;18.88;13.85;;;;;;;;;;5056034;28;20061;-72
2022/06/09 04:18:00;;;;;;;26.50;14.95;;;;;;;;;;5062481;28;20021;-72
2022/06/09 04:20:26;;;;;;;30.33;14.43;;;;;;;;;;5054207;28;20027;-72
2022/06/09 04:22:53;;;;;;;17.02;13.32;;;;;;;;;;5056760;28;20040;-72
2022/06/09 04:25:20;;;;;;;21.52;14.43;;;;;;;;;;5058569;28;20082;-72
2022/06/09 04:27:46;;;;;;;32.55;18.25;;;;;;;;;;5052198;28;20028;-72
2022/06/09 04:30:13;;;;;;;25.58;17.60;;;;;;;;;;5050589;28;20033;-72
2022/06/09 04:32:39;;;;;;;29.80;17.48;;;;;;;;;;5053538;28;20040;-72
2022/06/09 04:35:06;;;;;;;24.25;17.23;;;;;;;;;;5057450;28;20158;-72
2022/06/09 04:40:17;;;;;;;35.35;16.08;;;;;;;;;;5045057;28;20101;-72
2022/06/09 04:42:43;;;;;;;31.23;16.10;;;;;;;;;;5057464;28;20036;-72
2022/06/09 04:45:09;;;;;;;24.10;14.85;;;;;;;;;;5052576;28;20126;-72
2022/06/09 04:47:35;;;;;;;21.50;14.65;;;;;;;;;;5057531;28;20041;-72
2022/06/09 04:50:01;;;;;;;28.77;14.18;;;;;;;;;;5058442;28;20040;-72
2022/06/09 04:52:27;;;;;;;27.13;14.32;;;;;;;;;;5055040;28;20118;-72
2022/06/09 04:54:53;;;;;;;21.00;13.07;;;;;;;;;;5041300;28;20496;-72
2022/06/09 04:57:19;;;;;;;20.80;14.18;;;;;;;;;;5053263;28;20037;-72
2022/06/09 04:59:45;;;;;;;19.83;13.45;;;;;;;;;;5059051;28;20141;-72
2022/06/09 05:02:11;;;;;;;26.25;13.95;;;;;;;;;;5058682;28;20025;-72
2022/06/09 05:04:37;;;;;;;24.55;15.60;;;;;;;;;;5052514;28;20632;-72
2022/06/09 05:07:03;;;;;;;26.60;15.77;;;;;;;;;;5055025;28;20104;-72
2022/06/09 05:09:29;;;;;;;25.35;16.73;;;;;;;;;;5060287;28;20033;-72
2022/06/09 05:11:55;;;;;;;27.10;18.58;;;;;;;;;;5053349;28;20119;-72
2022/06/09 05:14:21;;;;;;;27.23;18.38;;;;;;;;;;5057620;28;20408;-72
2022/06/09 05:16:47;;;;;;;26.90;16.92;;;;;;;;;;5052383;28;20028;-72
2022/06/09 05:19:13;;;;;;;25.15;17.30;;;;;;;;;;5052355;28;20055;-73
2022/06/09 05:21:39;;;;;;;26.30;16.52;;;;;;;;;;5057560;28;20111;-73
2022/06/09 05:24:05;;;;;;;26.48;17.13;;;;;;;;;;5054343;28;21796;-73
2022/06/09 05:26:31;;;;;;;24.15;16.65;;;;;;;;;;5053094;28;20055;-71
2022/06/09 05:28:58;;;;;;;45.47;32.05;;;;;;;;;;5051648;28;20460;-71
2022/06/09 05:31:24;;;;;;;22.65;16.88;;;;;;;;;;5064435;28;20032;-71
2022/06/09 05:33:51;;;;;;;22.63;15.52;;;;;;;;;;5077402;28;20032;-71
2022/06/09 05:36:17;;;;;;;23.90;14.85;;;;;;;;;;5045600;28;20479;-72
2022/06/09 05:46:58;;;;;;;21.38;15.23;;;;;;;;;;5054895;28;20487;-73
2022/06/09 05:49:24;;;;;;;18.50;12.95;;;;;;;;;;5052885;28;20036;-71
2022/06/09 05:51:52;;;;;;;19.73;13.98;;;;;;;;;;5057042;28;20033;-71
2022/06/09 05:54:18;;;;;;;17.77;13.85;;;;;;;;;;5054290;28;20024;-72
2022/06/09 05:56:44;;;;;;;23.50;13.85;;;;;;;;;;5054179;28;20037;-72
2022/06/09 05:59:10;;;;;;;18.13;13.50;;;;;;;;;;5058693;28;20126;-72
2022/06/09 06:01:36;;;;;;;16.88;12.90;;;;;;;;;;5051959;28;20600;-72
2022/06/09 06:04:04;;;;;;;16.60;12.15;;;;;;;;;;5056823;28;20025;-72
2022/06/09 06:06:36;;;;;;;15.07;12.75;;;;;;;;;;5053427;28;20033;-71
2022/06/09 06:09:07;;;;;;;13.93;12.00;;;16.00;99.90;;;;;;5064108;28;20060;-76
2022/06/09 06:11:35;;;;;;;18.90;12.65;;;15.90;99.90;;;;;;5067836;28;20063;-80
2022/06/09 06:14:01;;;;;;;16.38;11.30;;;;;;;;;;5060940;28;20052;-80
2022/06/09 06:16:27;;;;;;;15.43;12.00;;;;;;;;;;5084741;28;20060;-72
2022/06/09 06:18:55;;;;;;;15.35;10.73;;;;;;;;;;5050472;28;20489;-73
2022/06/09 06:21:21;;;;;;;13.43;9.55;;;;;;;;;;5055679;28;20051;-73
2022/06/09 06:23:47;;;;;;;16.55;10.70;;;;;;;;;;5052936;28;20037;-73
2022/06/09 06:26:14;;;;;;;13.90;10.00;;;;;;;;;;5047697;28;20526;-72
2022/06/09 06:28:40;;;;;;;10.38;8.50;;;;;;;;;;5052640;28;20043;-72
2022/06/09 06:31:06;;;;;;;11.20;8.15;;;;;;;;;;5051522;28;20047;-72
2022/06/09 06:33:32;;;;;;;11.95;7.43;;;;;;;;;;5050934;28;20644;-72
2022/06/09 06:35:58;;;;;;;7.97;6.18;;;;;;;;;;5039726;28;20051;-72
2022/06/09 06:38:24;;;;;;;9.32;5.10;;;;;;;;;;5044265;28;20123;-72
2022/06/09 06:40:50;;;;;;;5.15;4.68;;;;;;;;;;5057355;28;20748;-74
2022/06/09 06:43:17;;;;;;;7.65;4.75;;;;;;;;;;5056015;28;20111;-73
2022/06/09 06:45:43;;;;;;;8.80;4.28;;;;;;;;;;5050023;28;20047;-73
2022/06/09 06:48:10;;;;;;;6.45;4.40;;;;;;;;;;5056164;28;20120;-74
2022/06/09 06:50:36;;;;;;;8.95;5.20;;;;;;;;;;5055777;28;20025;-71
2022/06/09 06:53:02;;;;;;;5.25;3.35;;;;;;;;;;5037041;28;20118;-71
2022/06/09 06:55:29;;;;;;;9.63;4.18;;;;;;;;;;5049758;28;20151;-70
2022/06/09 06:57:55;;;;;;;42.35;29.17;;;;;;;;;;5049923;28;20037;-72
2022/06/09 07:00:23;;;;;;;12.07;8.38;;;20.40;99.90;;;;;;5059596;28;20041;-72
2022/06/09 07:02:50;;;;;;;11.88;3.72;;;;;;;;;;5054030;28;20063;-72
2022/06/09 07:05:17;;;;;;;10.35;3.22;;;;;;;;;;5051604;28;20032;-71
2022/06/09 07:07:43;;;;;;;6.28;2.28;;;;;;;;;;5060370;28;20033;-70
2022/06/09 07:10:10;;;;;;;5.72;2.28;;;;;;;;;;5055186;28;20036;-70
2022/06/09 07:12:36;;;;;;;4.90;2.00;;;22.40;99.90;;;;;;5061099;28;20554;-70
2022/06/09 07:15:03;;;;;;;6.10;1.73;;;;;;;;;;5059513;28;20058;-71
2022/06/09 07:17:29;;;;;;;3.47;1.75;;;;;;;;;;5052966;28;20032;-71
2022/06/09 07:19:55;;;;;;;6.05;1.70;;;;;;;;;;5055505;28;20033;-71
2022/06/09 07:22:21;;;;;;;4.10;1.25;;;;;;;;;;5037036;28;20420;-71
2022/06/09 07:24:47;;;;;;;6.40;1.80;;;;;;;;;;5054779;28;20159;-71
2022/06/09 07:27:14;;;;;;;5.80;1.42;;;;;;;;;;5056713;28;20044;-71
2022/06/09 07:29:40;;;;;;;6.00;1.67;;;;;;;;;;5055839;28;20510;-72
2022/06/09 07:32:07;;;;;;;8.70;3.00;;;22.80;99.90;;;;;;5054324;28;20036;-70
2022/06/09 07:34:33;;;;;;;11.75;7.13;;;;;;;;;;5058034;28;20044;-71
2022/06/09 07:36:59;;;;;;;4.78;1.00;;;;;;;;;;5052257;28;20441;-70
2022/06/09 07:39:25;;;;;;;7.88;1.35;;;;;;;;;;5052951;28;20040;-71
2022/06/09 07:41:52;;;;;;;7.45;1.50;;;;;;;;;;5053993;28;20149;-72
2022/06/09 07:44:18;;;;;;;5.13;1.30;;;23.10;99.90;;;;;;5039488;28;20049;-73
2022/06/09 07:46:44;;;;;;;8.80;1.55;;;;;;;;;;5052808;28;20034;-73
2022/06/09 07:49:10;;;;;;;4.38;1.33;;;;;;;;;;5054478;28;20115;-73
2022/06/09 07:51:37;;;;;;;11.55;1.63;;;23.90;99.90;;;;;;5048298;28;20078;-73
2022/06/09 07:54:03;;;;;;;4.25;1.00;;;;;;;;;;5055863;28;20424;-74
2022/06/09 07:56:32;;;;;;;4.95;0.80;;;;;;;;;;5052895;28;20056;-73
2022/06/09 07:58:58;;;;;;;7.57;1.30;;;;;;;;;;5061209;28;20027;-77
2022/06/09 08:01:24;;;;;;;7.72;1.58;;;;;;;;;;5053727;28;20124;-79
2022/06/09 08:03:50;;;;;;;5.57;1.40;;;;;;;;;;5059964;28;20384;-80
2022/06/09 08:06:17;;;;;;;11.77;5.25;;;;;;;;;;5054507;28;20316;-78
2022/06/09 08:08:43;;;;;;;9.60;2.47;;;;;;;;;;5050316;28;20032;-76
2022/06/09 08:11:09;;;;;;;9.95;1.77;;;;;;;;;;5056172;28;20032;-73
2022/06/09 08:13:36;;;;;;;4.68;0.90;;;;;;;;;;5030790;28;20408;-76
2022/06/09 08:16:02;;;;;;;7.18;1.88;;;;;;;;;;5055505;28;20089;-75
2022/06/09 08:18:28;;;;;;;7.55;1.15;;;;;;;;;;5056395;28;20427;-75
2022/06/09 08:20:55;;;;;;;4.28;1.00;;;;;;;;;;5052709;28;20486;-75
2022/06/09 08:23:22;;;;;;;4.43;1.23;;;;;;;;;;5039747;28;20487;-76
2022/06/09 08:25:49;;;;;;;8.93;1.42;;;;;;;;;;5056990;28;20032;-76
2022/06/09 08:28:20;;;;;;;9.23;2.25;;;;;;;;;;5040213;28;20044;-75
2022/06/09 08:30:47;;;;;;;8.07;1.80;;;;;;;;;;5055658;28;20020;-75
2022/06/09 08:33:13;;;;;;;7.43;1.48;;;;;;;;;;5054631;28;20307;-75
2022/06/09 08:35:39;;;;;;;8.50;1.42;;;;;;;;;;5057308;28;20028;-75
2022/06/09 08:38:06;;;;;;;9.68;1.65;;;;;;;;;;5054232;28;20035;-75
2022/06/09 08:40:37;;;;;;;6.22;1.42;;;;;;;;;;5053130;28;20043;-75
2022/06/09 08:43:11;;;;;;;12.07;1.60;;;;;;;;;;5054720;28;20029;-75
2022/06/09 08:45:40;;;;;;;9.52;1.50;;;24.10;99.90;;;;;;5052236;28;20060;-75
2022/06/09 08:48:07;;;;;;;4.80;1.23;;;;;;;;;;5054373;28;20889;-75
2022/06/09 08:50:35;;;;;;;8.40;1.48;;;;;;;;;;5054803;28;20417;-75
2022/06/09 08:53:15;;;;;;;6.85;1.55;;;23.80;99.90;;;;;;5050604;28;20554;-75
2022/06/09 08:55:41;;;;;;;6.35;1.52;;;;;;;;;;5040212;28;20132;-75
2022/06/09 08:58:20;;;;;;;6.88;1.58;;;;;;;;;;5049434;28;20115;-75
2022/06/09 09:00:49;;;;;;;10.00;1.73;;;;;;;;;;5052967;28;20037;-75
2022/06/09 09:03:28;;;;;;;8.80;1.55;;;;;;;;;;5053012;28;20843;-75
2022/06/09 09:06:00;;;;;;;9.45;2.03;;;;;;;;;;5051935;28;20066;-75
2022/06/09 09:08:26;;;;;;;8.68;1.60;;;;;;;;;;5055121;28;20041;-75
2022/06/09 09:11:07;;;;;;;6.45;1.45;;;;;;;;;;5057433;28;20451;-75
2022/06/09 09:13:33;;;;;;;7.30;1.50;;;;;;;;;;5053313;28;20127;-75
2022/06/09 09:16:00;;;;;;;7.30;1.48;;;;;;;;;;5065501;28;20035;-75
2022/06/09 09:18:42;;;;;;;7.07;1.83;;;;;;;;;;5053146;28;20058;-75
2022/06/09 09:21:13;;;;;;;9.55;1.98;;;24.80;99.90;;;;;;5048313;28;20036;-75
2022/06/09 09:23:53;;;;;;;8.85;1.67;;;24.90;99.90;;;;;;5052230;28;20148;-75
2022/06/09 09:26:38;;;;;;;6.75;1.80;;;;;;;;;;5046092;28;20052;-75
2022/06/09 09:29:09;;;;;;;7.20;1.42;;;;;;;;;;5055204;28;20048;-75
2022/06/09 09:31:44;;;;;;;5.28;1.15;;;;;;;;;;5052432;28;20056;-75
2022/06/09 09:34:16;;;;;;;8.95;1.60;;;;;;;;;;5052963;28;20395;-75
2022/06/09 09:36:44;;;;;;;8.85;1.65;;;;;;;;;;5049479;28;20028;-75
2022/06/09 09:39:13;;;;;;;9.75;2.28;;;;;;;;;;5049600;28;20969;-78
2022/06/09 09:41:40;;;;;;;7.55;1.63;;;24.90;99.90;;;;;;5048955;28;20040;-74
2022/06/09 09:44:23;;;;;;;8.68;1.33;;;;;;;;;;5045928;28;20923;-74
2022/06/09 09:46:57;;;;;;;5.55;1.52;;;;;;;;;;5035546;28;20078;-74
2022/06/09 09:49:33;;;;;;;6.63;1.30;;;25.20;99.90;;;;;;5037969;28;20067;-74
2022/06/09 09:52:00;;;;;;;6.32;1.23;;;;;;;;;;5056033;28;20024;-74
2022/06/09 09:54:35;;;;;;;9.23;1.48;;;25.10;99.90;;;;;;5054422;28;20049;-74
2022/06/09 09:57:06;;;;;;;5.88;1.10;;;;;;;;;;5052247;28;20060;-74
2022/06/09 09:59:41;;;;;;;5.40;1.35;;;;;;;;;;5049765;28;20067;-74
2022/06/09 10:08:39;;;;;;;6.00;1.13;;;;;;;;;;5054809;28;21034;-73
2022/06/09 10:14:07;;;;;;;8.35;2.97;;;24.80;99.90;;;;;;5060776;28;20109;-76
2022/06/09 10:16:33;;;;;;;4.78;1.15;;;;;;;;;;5064121;28;20064;-73
2022/06/09 10:19:05;;;;;;;5.43;1.40;;;25.00;99.90;;;;;;5055569;28;20032;-75
2022/06/09 10:21:46;;;;;;;;;;;25.30;98.60;;;;;;5050611;28;20418;-73
2022/06/09 10:24:12;;;;;;;9.02;1.45;;;;;;;;;;5044888;28;19978;-74
2022/06/09 10:26:40;;;;;;;4.65;1.33;;;;;;;;;;5052976;28;20060;-77
2022/06/09 10:29:06;;;;;;;7.90;1.50;;;;;;;;;;5049194;28;20028;-73
2022/06/09 10:31:41;;;;;;;6.35;1.17;;;25.20;97.40;;;;;;5059107;28;20032;-74
2022/06/09 10:34:16;;;;;;;6.20;1.40;;;;;;;;;;5061815;28;20032;-74
2022/06/09 10:37:25;;;;;;;5.00;1.27;;;;;;;;;;5069003;28;20044;-75
2022/06/09 10:39:52;;;;;;;5.50;1.15;;;;;;;;;;4967229;28;20042;-79
2022/06/09 10:42:18;;;;;;;8.45;1.42;;;;;;;;;;4982197;28;20070;-79
2022/06/09 10:44:50;;;;;;;6.40;1.17;;;25.00;99.90;;;;;;5037904;28;20096;-80
2022/06/09 10:56:57;;;;;;;5.40;1.73;;;;;;;;;;5066628;28;20039;-73
2022/06/09 10:59:24;;;;;;;9.63;1.75;;;;;;;;;;5016728;28;20086;-73
2022/06/09 11:01:50;;;;;;;8.77;1.73;;;;;;;;;;5070764;28;20044;-72
2022/06/09 11:04:18;;;;;;;3.38;1.10;;;24.80;99.90;;;;;;5045831;28;22067;-74
2022/06/09 11:06:49;;;;;;;5.57;1.08;;;;;;;;;;5069065;28;20035;-73
2022/06/09 11:09:18;;;;;;;9.38;1.73;;;;;;;;;;5075825;28;20049;-73
2022/06/09 11:11:52;;;;;;;7.50;1.55;;;24.40;99.90;;;;;;5091320;28;20024;-72
2022/06/09 11:14:21;;;;;;;6.90;1.45;;;;;;;;;;5087521;28;20056;-74
2022/06/09 11:17:14;;;;;;;7.97;1.60;;;24.60;97.50;;;;;;5073133;28;20028;-73
2022/06/09 11:19:48;;;;;;;5.55;1.00;;;24.70;99.90;;;;;;5071541;28;20472;-73
2022/06/09 11:22:20;;;;;;;6.05;1.25;;;;;;;;;;5080682;28;20488;-74
2022/06/09 11:24:48;;;;;;;;;;;24.90;98.80;;;;;;5074537;28;20033;-73
2022/06/09 11:27:20;;;;;;;9.60;2.30;;;;;;;;;;5079135;28;19915;-73
2022/06/09 11:29:46;;;;;;;;;;;;;;;;;;5064838;28;20025;-72
2022/06/09 11:32:20;;;;;;;8.02;1.60;;;;;;;;;;5066418;28;19923;-73
2022/06/09 11:34:51;;;;;;;7.07;1.20;;;24.40;97.90;;;;;;5060294;28;20044;-78
2022/06/09 11:37:28;;;;;;;9.93;1.23;;;;;;;;;;5067497;28;20045;-78
2022/06/09 11:40:05;;;;;;;7.93;1.35;;;24.40;98.10;;;;;;5074942;28;20116;-77
2022/06/09 11:42:49;;;;;;;5.47;1.73;;;;;;;;;;5051947;28;20024;-78
2022/06/09 11:45:18;;;;;;;7.30;1.05;;;;;;;;;;5077641;28;20052;-78
2022/06/09 11:47:44;;;;;;;6.90;1.48;;;23.50;99.10;;;;;;5075415;28;20024;-78
2022/06/09 11:50:18;;;;;;;4.50;0.90;;;23.30;98.90;;;;;;5041662;28;20029;-78
2022/06/09 11:52:47;;;;;;;7.75;1.40;;;;;;;;;;5066551;28;20546;-78
2022/06/09 11:56:15;;;;;;;7.60;1.80;;;23.20;99.10;;;;;;5064965;28;20365;-77
2022/06/09 11:58:34;;;;;;;6.97;1.48;;;;;;;;;;5067810;28;20064;-77
2022/06/09 12:01:06;;;;;;;7.30;1.92;;;;;;;;;;5068543;28;20026;-79
2022/06/09 12:03:58;;;;;;;6.50;1.23;;;23.00;99.90;;;;;;5070980;28;20040;-77
2022/06/09 12:06:33;;;;;;;8.60;2.65;;;;;;;;;;5063781;28;20432;-71
2022/06/09 12:09:07;;;;;;;9.48;5.13;;;23.10;99.90;;;;;;5066022;28;20051;-74
2022/06/09 12:11:52;;;;;;;48.58;4.53;;;;;;;;;;5059915;28;20148;-72
2022/06/09 12:14:44;;;;;;;70.90;9.20;;;;;;;;;;5070217;28;20055;-72
2022/06/09 12:17:22;;;;;;;6.82;1.15;;;;;;;;;;5059205;28;20191;-73
2022/06/09 12:19:53;;;;;;;9.75;1.63;;;;;;;;;;5063740;28;20074;-73
2022/06/09 12:22:31;;;;;;;7.47;1.00;;;;;;;;;;5065439;28;20028;-73
2022/06/09 12:25:04;;;;;;;11.68;1.92;;;;;;;;;;5059485;28;22745;-73
2022/06/09 12:27:38;;;;;;;6.90;1.60;;;23.00;98.60;;;;;;5056922;28;20036;-73
2022/06/09 12:30:04;;;;;;;6.80;1.58;;;;;;;;;;5072659;28;20028;-73
2022/06/09 12:32:39;;;;;;;6.25;1.23;;;;;;;;;;5069368;28;20451;-73
2022/06/09 12:35:23;;;;;;;9.45;1.65;;;23.70;99.60;;;;;;5069228;28;20384;-73
2022/06/09 12:38:16;;;;;;;7.18;2.05;;;23.60;99.90;;;;;;5069854;28;20020;-73
2022/06/09 12:40:49;;;;;;;8.27;1.48;;;23.40;99.60;;;;;;5069229;28;20033;-74
2022/06/09 12:43:36;;;;;;;6.85;1.10;;;;;;;;;;5058633;28;20032;-72
2022/06/09 12:46:05;;;;;;;5.53;1.20;;;;;;;;;;5065661;28;20110;-75
2022/06/09 12:48:33;;;;;;;7.30;1.17;;;;;;;;;;5067960;28;20028;-74
2022/06/09 12:51:00;;;;;;;8.55;1.38;;;;;;;;;;5080616;28;20035;-74
2022/06/09 12:53:37;;;;;;;8.55;1.20;;;;;;;;;;5068964;28;20430;-74
2022/06/09 12:56:06;;;;;;;6.95;1.65;;;;;;;;;;5078840;28;20060;-74
2022/06/09 12:58:40;;;;;;;10.93;1.27;;;22.50;99.90;;;;;;5063636;28;20052;-74
2022/06/09 13:01:11;;;;;;;6.18;1.25;;;;;;;;;;5066679;28;20033;-75
2022/06/09 13:03:49;;;;;;;6.60;1.50;;;22.20;99.90;;;;;;5066959;28;20595;-74
2022/06/09 13:06:33;;;;;;;5.47;1.75;;;;;;;;;;5076498;28;20019;-75
2022/06/09 13:09:27;;;;;;;8.63;1.33;;;22.20;98.00;;;;;;5057001;28;20025;-75
2022/06/09 13:14:40;;;;;;;7.82;1.33;;;;;;;;;;5068602;28;20100;-75
2022/06/09 13:17:08;;;;;;;11.85;1.75;;;;;;;;;;5079293;28;20035;-75
2022/06/09 13:19:36;;;;;;;4.60;1.50;;;22.80;98.00;;;;;;5061887;28;20369;-75
2022/06/09 13:22:05;;;;;;;7.65;1.58;;;;;;;;;;5068077;28;20035;-75
2022/06/09 13:24:34;;;;;;;8.23;1.10;;;;;;;;;;5090534;28;20036;-76
2022/06/09 13:27:03;;;;;;;8.88;2.35;;;23.10;97.30;;;;;;5070032;28;20154;-76
2022/06/09 13:29:51;;;;;;;6.72;1.15;;;23.20;97.30;;;;;;5071529;28;20121;-76
2022/06/09 13:32:24;;;;;;;10.30;2.72;;;23.10;95.30;;;;;;5059068;28;20036;-73
2022/06/09 13:34:53;;;;;;;12.05;4.80;;;;;;;;;;5047610;28;20052;-74
2022/06/09 13:37:36;;;;;;;11.38;2.03;;;23.40;97.20;;;;;;5068003;28;20088;-74
2022/06/09 13:40:02;;;;;;;7.72;1.75;;;;;;;;;;5070406;28;20032;-74
2022/06/09 13:42:29;;;;;;;8.20;1.23;;;;;;;;;;5069198;28;20653;-75
2022/06/09 13:45:04;;;;;;;4.20;1.08;;;;;;;;;;5057266;28;20078;-74
2022/06/09 13:47:32;;;;;;;6.35;1.00;;;;;;;;;;5075560;28;20036;-74
2022/06/09 13:50:13;;;;;;;4.88;1.50;;;23.20;95.20;;;;;;5071668;28;20387;-75
2022/06/09 13:52:44;;;;;;;6.00;1.20;;;;;;;;;;5062777;28;20157;-74
2022/06/09 13:55:17;;;;;;;6.37;1.87;;;23.30;96.30;;;;;;5063776;28;20027;-74
2022/06/09 13:57:45;;;;;;;8.90;1.60;;;23.20;97.40;;;;;;5084416;28;20285;-74
2022/06/09 14:00:17;;;;;;;7.20;1.10;;;;;;;;;;5069017;28;20028;-74
2022/06/09 14:02:43;;;;;;;;;;;;;;;;;;5074745;28;20028;-75
2022/06/09 14:05:11;;;;;;;13.23;2.42;;;;;;;;;;5079176;28;19916;-74
2022/06/09 14:07:37;;;;;;;9.93;1.70;;;;;;;;;;5071000;28;20043;-75
2022/06/09 14:10:03;;;;;;;7.63;1.98;;;;;;;;;;5047476;28;20033;-75
2022/06/09 14:12:28;;;;;;;11.50;3.03;;;23.20;99.90;;;;;;5066770;28;21704;-75
2022/06/09 14:14:54;;;;;;;7.30;2.00;;;;;;;;;;5058954;28;20131;-77
2022/06/09 14:17:24;;;;;;;9.15;1.50;;;23.30;95.50;;;;;;5066228;28;20162;-73
2022/06/09 14:19:51;;;;;;;13.68;1.63;;;23.30;96.40;;;;;;5058972;28;20044;-73
2022/06/09 14:22:17;;;;;;;25.55;2.60;;;;;;;;;;5076831;28;20123;-73
2022/06/09 14:24:44;;;;;;;9.93;1.70;;;;;;;;;;5076401;28;20030;-73
2022/06/09 14:27:10;;;;;;;8.20;1.50;;;;;;;;;;5070419;28;20039;-74
2022/06/09 14:29:37;;;;;;;6.35;1.98;;;;;;;;;;5050361;28;20480;-73
2022/06/09 14:32:03;;;;;;;11.88;2.00;;;;;;;;;;5068525;28;20108;-72
2022/06/09 14:34:29;;;;;;;7.28;1.75;;;23.60;99.90;;;;;;5075781;28;20028;-72
2022/06/09 14:36:55;;;;;;;11.52;1.60;;;23.60;94.20;;;;;;5062837;28;20461;-73
2022/06/09 14:39:23;;;;;;;8.18;1.48;;;;;;;;;;5069224;28;20045;-72
2022/06/09 14:41:49;;;;;;;5.85;1.40;;;;;;;;;;5056448;28;20056;-73
2022/06/09 14:44:15;;;;;;;9.32;1.80;;;;;;;;;;5074965;28;20037;-72
2022/06/09 14:46:43;;;;;;;9.38;1.48;;;;;;;;;;5069146;28;20376;-73
2022/06/09 14:49:12;;;;;;;9.63;1.90;;;;;;;;;;5068087;28;20418;-73
2022/06/09 14:51:38;;;;;;;9.43;1.63;;;;;;;;;;5070876;28;20071;-73
2022/06/09 14:54:04;;;;;;;12.18;2.10;;;;;;;;;;5071799;28;20024;-72
2022/06/09 14:56:41;;;;;;;8.27;2.13;;;23.10;95.60;;;;;;5064365;28;20048;-71
2022/06/09 14:59:07;;;;;;;9.38;1.75;;;;;;;;;;5078040;28;20059;-73
2022/06/09 15:01:34;;;;;;;7.63;1.73;;;;;;;;;;5066915;28;20044;-73